createdAt,value
2018-11-05T00:00:50.109Z,24.90
2018-11-05T00:01:50.067Z,25.20
2018-11-05T00:02:50.085Z,25.00
2018-11-05T00:03:50.041Z,24.30
2018-11-05T00:04:50.036Z,25.30
2018-11-05T00:05:50.027Z,25.20
2018-11-05T00:06:50.023Z,25.30
2018-11-05T00:07:50.039Z,26.00
2018-11-05T00:08:50.022Z,27.60
2018-11-05T00:09:49.974Z,25.30
2018-11-05T00:10:49.963Z,26.30
2018-11-05T00:11:50.020Z,25.20
2018-11-05T00:12:49.938Z,24.50
2018-11-05T00:13:49.964Z,27.20
2018-11-05T00:14:49.917Z,26.40
2018-11-05T00:15:49.905Z,27.40
2018-11-05T00:16:49.910Z,23.00
2018-11-05T00:17:49.908Z,24.30
2018-11-05T00:18:49.922Z,24.20
2018-11-05T00:19:49.864Z,25.80
2018-11-05T00:20:49.863Z,24.70
2018-11-05T00:21:49.860Z,27.30
2018-11-05T00:22:49.833Z,27.80
2018-11-05T00:23:49.846Z,28.70
2018-11-05T00:24:49.809Z,29.20
2018-11-05T00:25:49.827Z,27.70
2018-11-05T00:26:49.793Z,27.40
2018-11-05T00:27:49.770Z,28.30
2018-11-05T00:28:49.763Z,27.20
2018-11-05T00:29:49.790Z,27.40
2018-11-05T00:30:49.759Z,24.80
2018-11-05T00:31:49.726Z,27.60
2018-11-05T00:32:49.717Z,27.10
2018-11-05T00:33:49.761Z,26.50
2018-11-05T00:34:49.709Z,25.20
2018-11-05T00:35:49.686Z,26.20
2018-11-05T00:36:49.696Z,25.10
2018-11-05T00:37:49.675Z,25.50
2018-11-05T00:38:49.679Z,24.60
2018-11-05T00:39:49.637Z,26.30
2018-11-05T00:40:49.642Z,26.00
2018-11-05T00:41:49.615Z,26.30
2018-11-05T00:42:49.599Z,26.20
2018-11-05T00:43:49.628Z,26.20
2018-11-05T00:44:49.582Z,25.90
2018-11-05T00:45:49.606Z,26.20
2018-11-05T00:46:49.556Z,26.70
2018-11-05T00:47:49.548Z,25.20
2018-11-05T00:48:49.560Z,28.20
2018-11-05T00:49:49.522Z,26.90
2018-11-05T00:50:49.544Z,26.00
2018-11-05T00:51:49.524Z,27.50
2018-11-05T00:52:49.486Z,27.30
2018-11-05T00:53:49.494Z,28.60
2018-11-05T00:54:49.487Z,28.40
2018-11-05T00:55:49.455Z,28.60
2018-11-05T00:56:49.449Z,28.70
2018-11-05T00:57:49.436Z,29.00
2018-11-05T00:58:49.422Z,30.70
2018-11-05T00:59:49.521Z,26.80
2018-11-05T01:00:49.397Z,26.10
2018-11-05T01:01:49.394Z,27.30
2018-11-05T01:02:49.403Z,27.10
2018-11-05T01:03:49.364Z,26.50
2018-11-05T01:04:49.352Z,28.00
2018-11-05T01:05:49.356Z,29.00
2018-11-05T01:06:49.355Z,26.80
2018-11-05T01:07:49.325Z,28.90
2018-11-05T01:08:49.316Z,29.10
2018-11-05T01:09:49.342Z,27.80
2018-11-05T01:10:49.284Z,28.40
2018-11-05T01:11:49.298Z,27.70
2018-11-05T01:12:49.267Z,32.00
2018-11-05T01:13:49.261Z,30.50
2018-11-05T01:14:49.244Z,31.40
2018-11-05T01:15:49.261Z,32.70
2018-11-05T01:16:49.215Z,30.80
2018-11-05T01:17:49.204Z,31.90
2018-11-05T01:18:49.193Z,30.70
2018-11-05T01:19:49.229Z,30.40
2018-11-05T01:20:49.190Z,30.30
2018-11-05T01:21:49.161Z,27.70
2018-11-05T01:22:49.173Z,31.00
2018-11-05T01:23:49.137Z,29.70
2018-11-05T01:24:49.151Z,29.60
2018-11-05T01:25:49.142Z,31.40
2018-11-05T01:26:49.103Z,31.30
2018-11-05T01:27:49.093Z,30.50
2018-11-05T01:28:49.100Z,29.70
2018-11-05T01:29:49.142Z,34.50
2018-11-05T01:30:49.092Z,29.00
2018-11-05T01:31:49.054Z,30.20
2018-11-05T01:32:49.037Z,31.20
2018-11-05T01:33:49.029Z,30.90
2018-11-05T01:34:49.013Z,30.40
2018-11-05T01:35:49.030Z,32.70
2018-11-05T01:36:49.021Z,29.20
2018-11-05T01:37:49.036Z,32.40
2018-11-05T01:38:48.970Z,30.70
2018-11-05T01:39:49.015Z,30.70
2018-11-05T01:40:48.970Z,30.80
2018-11-05T01:41:48.971Z,30.50
2018-11-05T01:42:48.930Z,30.90
2018-11-05T01:43:48.915Z,33.00
2018-11-05T01:44:48.907Z,31.90
2018-11-05T01:45:48.940Z,33.70
2018-11-05T01:46:48.882Z,33.00
2018-11-05T01:47:48.865Z,34.50
2018-11-05T01:48:48.861Z,33.50
2018-11-05T01:49:48.875Z,32.60
2018-11-05T01:50:48.872Z,30.90
2018-11-05T01:51:48.819Z,32.90
2018-11-05T01:52:48.834Z,32.40
2018-11-05T01:53:48.813Z,30.70
2018-11-05T01:54:48.797Z,31.70
2018-11-05T01:55:48.775Z,32.60
2018-11-05T01:56:48.766Z,32.50
2018-11-05T01:57:48.778Z,33.20
2018-11-05T01:58:48.746Z,32.60
2018-11-05T01:59:48.754Z,33.60
2018-11-05T02:00:48.721Z,31.60
2018-11-05T02:01:48.742Z,30.10
2018-11-05T02:02:48.697Z,32.90
2018-11-05T02:03:48.709Z,34.40
2018-11-05T02:04:48.682Z,34.20
2018-11-05T02:05:48.698Z,36.00
2018-11-05T02:06:48.654Z,33.90
2018-11-05T02:07:55.718Z,34.80
2018-11-05T02:08:48.689Z,33.30
2018-11-05T02:09:48.636Z,33.10
2018-11-05T02:10:48.634Z,33.10
2018-11-05T02:11:48.612Z,32.70
2018-11-05T02:12:48.636Z,32.50
2018-11-05T02:13:48.594Z,33.30
2018-11-05T02:14:48.586Z,34.90
2018-11-05T02:15:48.628Z,32.60
2018-11-05T02:16:48.559Z,33.90
2018-11-05T02:17:48.578Z,35.50
2018-11-05T02:18:48.548Z,34.50
2018-11-05T02:19:48.526Z,34.00
2018-11-05T02:20:48.513Z,34.90
2018-11-05T02:21:48.498Z,33.10
2018-11-05T02:22:48.502Z,33.20
2018-11-05T02:23:48.519Z,34.40
2018-11-05T02:24:48.473Z,33.60
2018-11-05T02:25:48.454Z,33.10
2018-11-05T02:26:48.466Z,37.90
2018-11-05T02:27:48.477Z,33.70
2018-11-05T02:28:48.422Z,34.90
2018-11-05T02:29:48.419Z,34.80
2018-11-05T02:30:48.400Z,34.10
2018-11-05T02:31:48.428Z,36.40
2018-11-05T02:32:48.452Z,36.10
2018-11-05T02:33:48.362Z,34.10
2018-11-05T02:34:48.376Z,34.50
2018-11-05T02:35:48.363Z,35.30
2018-11-05T02:36:48.329Z,35.10
2018-11-05T02:37:48.321Z,35.70
2018-11-05T02:38:48.333Z,37.30
2018-11-05T02:39:48.316Z,35.40
2018-11-05T02:40:48.287Z,38.00
2018-11-05T02:41:48.284Z,36.30
2018-11-05T02:42:48.265Z,36.40
2018-11-05T02:43:48.278Z,38.30
2018-11-05T02:44:48.273Z,36.40
2018-11-05T02:45:48.230Z,38.80
2018-11-05T02:46:48.226Z,36.60
2018-11-05T02:47:48.220Z,37.50
2018-11-05T02:48:48.199Z,40.30
2018-11-05T02:49:48.214Z,38.70
2018-11-05T02:50:48.179Z,37.50
2018-11-05T02:51:48.160Z,37.70
2018-11-05T02:52:48.156Z,37.20
2018-11-05T02:53:48.141Z,38.40
2018-11-05T02:54:48.151Z,40.20
2018-11-05T02:55:48.115Z,38.50
2018-11-05T02:56:48.122Z,40.20
2018-11-05T02:57:48.104Z,39.90
2018-11-05T02:58:48.110Z,39.40
2018-11-05T02:59:48.094Z,38.30
2018-11-05T03:00:48.057Z,43.00
2018-11-05T03:01:48.045Z,43.80
2018-11-05T03:02:48.060Z,39.70
2018-11-05T03:03:48.032Z,40.10
2018-11-05T03:04:48.039Z,42.90
2018-11-05T03:05:48.031Z,45.20
2018-11-05T03:06:47.995Z,41.50
2018-11-05T03:07:48.006Z,43.90
2018-11-05T03:08:47.976Z,43.90
2018-11-05T03:09:47.963Z,41.40
2018-11-05T03:10:47.974Z,42.10
2018-11-05T03:11:48.011Z,42.80
2018-11-05T03:12:47.930Z,44.90
2018-11-05T03:13:47.915Z,41.40
2018-11-05T03:14:47.920Z,40.70
2018-11-05T03:15:47.907Z,41.60
2018-11-05T03:16:47.913Z,44.40
2018-11-05T03:17:47.873Z,42.50
2018-11-05T03:18:47.860Z,41.50
2018-11-05T03:19:47.848Z,44.10
2018-11-05T03:20:47.838Z,41.10
2018-11-05T03:21:47.871Z,41.10
2018-11-05T03:22:47.813Z,39.10
2018-11-05T03:23:47.810Z,40.30
2018-11-05T03:24:47.811Z,40.20
2018-11-05T03:25:48.332Z,40.10
2018-11-05T03:26:48.380Z,41.30
2018-11-05T03:27:47.764Z,42.20
2018-11-05T03:28:47.748Z,38.80
2018-11-05T03:29:47.766Z,39.80
2018-11-05T03:30:47.728Z,39.10
2018-11-05T03:31:47.732Z,39.10
2018-11-05T03:32:47.725Z,41.20
2018-11-05T03:33:47.701Z,39.40
2018-11-05T03:34:47.687Z,40.40
2018-11-05T03:35:47.695Z,41.40
2018-11-05T03:36:47.679Z,38.10
2018-11-05T03:37:47.695Z,38.50
2018-11-05T03:38:47.638Z,41.70
2018-11-05T03:39:47.622Z,38.80
2018-11-05T03:40:47.623Z,41.30
2018-11-05T03:41:47.627Z,37.70
2018-11-05T03:42:47.588Z,38.00
2018-11-05T03:43:47.580Z,38.90
2018-11-05T03:44:47.572Z,37.70
2018-11-05T03:45:47.555Z,40.10
2018-11-05T03:46:47.577Z,38.50
2018-11-05T03:47:47.534Z,37.50
2018-11-05T03:48:47.519Z,36.20
2018-11-05T03:49:47.520Z,38.50
2018-11-05T03:50:47.497Z,39.50
2018-11-05T03:51:47.519Z,39.10
2018-11-05T03:52:47.477Z,39.50
2018-11-05T03:53:47.476Z,37.90
2018-11-05T03:54:47.466Z,41.60
2018-11-05T03:55:47.527Z,38.40
2018-11-05T03:56:47.568Z,36.40
2018-11-05T03:57:47.465Z,37.00
2018-11-05T03:58:47.407Z,40.40
2018-11-05T03:59:47.397Z,39.00
2018-11-05T04:00:47.408Z,37.10
2018-11-05T04:01:47.397Z,40.30
2018-11-05T04:02:47.398Z,41.20
2018-11-05T04:03:47.336Z,37.80
2018-11-05T04:04:47.363Z,38.90
2018-11-05T04:05:47.336Z,38.70
2018-11-05T04:06:47.346Z,41.80
2018-11-05T04:07:47.336Z,37.20
2018-11-05T04:08:47.293Z,38.20
2018-11-05T04:09:47.286Z,38.40
2018-11-05T04:10:47.274Z,38.00
2018-11-05T04:11:47.283Z,41.20
2018-11-05T04:12:47.283Z,38.50
2018-11-05T04:13:47.264Z,36.00
2018-11-05T04:14:47.265Z,38.10
2018-11-05T04:15:47.287Z,38.20
2018-11-05T04:16:47.208Z,33.30
2018-11-05T04:17:47.230Z,35.40
2018-11-05T04:18:47.185Z,35.50
2018-11-05T04:19:47.205Z,35.20
2018-11-05T04:20:47.159Z,37.50
2018-11-05T04:21:47.147Z,35.00
2018-11-05T04:22:47.143Z,36.60
2018-11-05T04:23:47.131Z,37.70
2018-11-05T04:24:47.166Z,35.30
2018-11-05T04:25:47.110Z,38.00
2018-11-05T04:26:47.110Z,37.10
2018-11-05T04:27:47.103Z,35.10
2018-11-05T04:28:47.099Z,34.30
2018-11-05T04:29:47.070Z,33.90
2018-11-05T04:30:47.072Z,36.80
2018-11-05T04:31:47.051Z,36.70
2018-11-05T04:32:47.024Z,36.40
2018-11-05T04:33:47.015Z,37.10
2018-11-05T04:34:47.004Z,35.40
2018-11-05T04:35:47.006Z,34.50
2018-11-05T04:36:47.003Z,36.60
2018-11-05T04:37:46.974Z,39.80
2018-11-05T04:38:46.955Z,36.30
2018-11-05T04:39:46.944Z,32.90
2018-11-05T04:40:46.985Z,36.10
2018-11-05T04:41:46.949Z,36.30
2018-11-05T04:42:46.908Z,33.70
2018-11-05T04:43:46.903Z,35.70
2018-11-05T04:44:46.922Z,34.00
2018-11-05T04:45:46.879Z,35.20
2018-11-05T04:46:46.874Z,33.80
2018-11-05T04:47:46.866Z,34.50
2018-11-05T04:48:46.875Z,32.90
2018-11-05T04:49:46.830Z,34.40
2018-11-05T04:50:46.826Z,34.00
2018-11-05T04:51:46.808Z,33.70
2018-11-05T04:52:46.804Z,34.80
2018-11-05T04:53:46.830Z,32.80
2018-11-05T04:54:46.791Z,35.90
2018-11-05T04:55:46.802Z,33.70
2018-11-05T04:56:46.752Z,31.30
2018-11-05T04:57:46.741Z,33.90
2018-11-05T04:58:46.757Z,34.40
2018-11-05T04:59:46.720Z,34.90
2018-11-05T05:00:46.710Z,35.30
2018-11-05T05:01:46.684Z,35.20
2018-11-05T05:02:46.688Z,35.70
2018-11-05T05:03:46.708Z,35.10
2018-11-05T05:04:46.674Z,34.10
2018-11-05T05:05:46.683Z,32.90
2018-11-05T05:06:46.648Z,32.00
2018-11-05T05:07:46.630Z,31.10
2018-11-05T05:08:46.655Z,31.40
2018-11-05T05:09:46.620Z,35.50
2018-11-05T05:10:46.632Z,29.80
2018-11-05T05:11:46.611Z,32.70
2018-11-05T05:12:46.595Z,31.70
2018-11-05T05:13:46.597Z,31.80
2018-11-05T05:14:46.581Z,32.10
2018-11-05T05:15:46.546Z,32.70
2018-11-05T05:16:46.556Z,31.30
2018-11-05T05:17:46.515Z,32.10
2018-11-05T05:18:46.509Z,30.90
2018-11-05T05:19:46.521Z,31.70
2018-11-05T05:20:46.484Z,31.50
2018-11-05T05:21:46.485Z,31.90
2018-11-05T05:22:46.669Z,31.80
2018-11-05T05:23:46.481Z,34.00
2018-11-05T05:24:46.502Z,32.70
2018-11-05T05:25:46.489Z,33.30
2018-11-05T05:26:46.448Z,31.70
2018-11-05T05:27:46.411Z,32.80
2018-11-05T05:28:46.390Z,29.60
2018-11-05T05:29:46.383Z,33.50
2018-11-05T05:30:46.371Z,30.00
2018-11-05T05:31:46.407Z,32.80
2018-11-05T05:32:46.360Z,34.30
2018-11-05T05:33:46.467Z,30.90
2018-11-05T05:34:46.326Z,32.10
2018-11-05T05:35:46.339Z,31.30
2018-11-05T05:36:46.321Z,30.90
2018-11-05T05:37:46.291Z,32.50
2018-11-05T05:38:46.290Z,32.10
2018-11-05T05:39:46.309Z,31.20
2018-11-05T05:40:46.309Z,33.90
2018-11-05T05:41:46.247Z,32.80
2018-11-05T05:42:46.238Z,33.00
2018-11-05T05:43:46.257Z,34.20
2018-11-05T05:44:46.221Z,34.40
2018-11-05T05:45:46.253Z,35.90
2018-11-05T05:46:46.215Z,35.90
2018-11-05T05:47:46.188Z,35.30
2018-11-05T05:48:46.168Z,34.40
2018-11-05T05:49:46.196Z,35.90
2018-11-05T05:50:46.186Z,34.20
2018-11-05T05:51:46.136Z,37.80
2018-11-05T05:52:46.124Z,37.50
2018-11-05T05:53:46.138Z,35.90
2018-11-05T05:54:46.116Z,35.80
2018-11-05T05:55:46.097Z,34.80
2018-11-05T05:56:46.103Z,35.10
2018-11-05T05:57:46.067Z,35.50
2018-11-05T05:58:46.056Z,34.50
2018-11-05T05:59:46.122Z,36.00
2018-11-05T06:00:46.033Z,33.90
2018-11-05T06:01:46.044Z,36.10
2018-11-05T06:02:46.037Z,34.00
2018-11-05T06:03:45.998Z,34.20
2018-11-05T06:04:45.986Z,38.10
2018-11-05T06:05:45.997Z,35.90
2018-11-05T06:06:46.012Z,35.60
2018-11-05T06:07:45.943Z,36.90
2018-11-05T06:08:45.942Z,36.30
2018-11-05T06:09:45.930Z,37.10
2018-11-05T06:10:45.919Z,36.80
2018-11-05T06:11:45.962Z,35.70
2018-11-05T06:12:45.905Z,39.10
2018-11-05T06:13:45.897Z,38.40
2018-11-05T06:14:45.877Z,35.70
2018-11-05T06:15:45.915Z,39.20
2018-11-05T06:16:45.883Z,40.00
2018-11-05T06:17:45.862Z,38.10
2018-11-05T06:18:45.856Z,37.20
2018-11-05T06:19:45.817Z,37.80
2018-11-05T06:20:45.807Z,37.40
2018-11-05T06:21:45.885Z,42.40
2018-11-05T06:22:45.824Z,36.70
2018-11-05T06:23:45.776Z,36.70
2018-11-05T06:24:45.762Z,34.60
2018-11-05T06:25:45.752Z,40.80
2018-11-05T06:26:45.739Z,38.70
2018-11-05T06:27:45.743Z,37.30
2018-11-05T06:28:45.887Z,35.40
2018-11-05T06:29:45.710Z,37.90
2018-11-05T06:30:45.704Z,38.70
2018-11-05T06:31:45.680Z,37.40
2018-11-05T06:32:45.674Z,38.50
2018-11-05T06:33:45.689Z,36.00
2018-11-05T06:34:45.650Z,39.80
2018-11-05T06:35:45.649Z,35.40
2018-11-05T06:36:45.640Z,37.00
2018-11-05T06:37:45.616Z,37.40
2018-11-05T06:38:45.626Z,36.70
2018-11-05T06:39:45.592Z,34.60
2018-11-05T06:40:45.581Z,38.50
2018-11-05T06:41:45.653Z,37.90
2018-11-05T06:42:45.595Z,39.40
2018-11-05T06:43:45.552Z,39.30
2018-11-05T06:44:45.673Z,40.10
2018-11-05T06:45:45.554Z,37.30
2018-11-05T06:46:45.500Z,39.10
2018-11-05T06:47:45.510Z,39.80
2018-11-05T06:48:45.516Z,40.60
2018-11-05T06:49:45.503Z,39.70
2018-11-05T06:50:45.495Z,38.80
2018-11-05T06:51:45.463Z,38.50
2018-11-05T06:52:45.465Z,36.80
2018-11-05T06:53:45.446Z,37.90
2018-11-05T06:54:45.422Z,39.40
2018-11-05T06:55:45.431Z,38.90
2018-11-05T06:56:45.403Z,39.70
2018-11-05T06:57:45.528Z,37.00
2018-11-05T06:58:45.387Z,40.90
2018-11-05T06:59:45.397Z,39.80
2018-11-05T07:00:45.361Z,37.80
2018-11-05T07:01:45.343Z,38.10
2018-11-05T07:02:45.332Z,36.70
2018-11-05T07:03:45.322Z,39.40
2018-11-05T07:04:45.333Z,39.80
2018-11-05T07:05:45.322Z,39.60
2018-11-05T07:06:45.288Z,38.50
2018-11-05T07:07:45.275Z,39.30
2018-11-05T07:08:45.265Z,37.00
2018-11-05T07:09:45.346Z,38.30
2018-11-05T07:10:45.252Z,37.90
2018-11-05T07:11:45.230Z,39.70
2018-11-05T07:12:45.221Z,36.00
2018-11-05T07:13:45.209Z,35.70
2018-11-05T07:14:45.224Z,35.80
2018-11-05T07:15:45.189Z,35.90
2018-11-05T07:16:45.205Z,34.80
2018-11-05T07:17:45.169Z,37.30
2018-11-05T07:18:45.338Z,37.30
2018-11-05T07:19:45.141Z,40.60
2018-11-05T07:20:45.122Z,38.80
2018-11-05T07:21:45.142Z,38.30
2018-11-05T07:22:45.106Z,38.30
2018-11-05T07:23:45.129Z,35.30
2018-11-05T07:24:45.089Z,41.30
2018-11-05T07:25:45.078Z,41.30
2018-11-05T07:26:45.062Z,39.10
2018-11-05T07:27:45.131Z,38.50
2018-11-05T07:28:45.063Z,36.20
2018-11-05T07:29:45.027Z,40.80
2018-11-05T07:30:45.055Z,36.60
2018-11-05T07:31:45.007Z,38.00
2018-11-05T07:32:44.997Z,38.30
2018-11-05T07:33:45.109Z,38.00
2018-11-05T07:34:44.972Z,40.20
2018-11-05T07:35:44.961Z,38.80
2018-11-05T07:36:44.950Z,35.90
2018-11-05T07:37:44.967Z,39.30
2018-11-05T07:38:44.933Z,39.10
2018-11-05T07:39:44.929Z,39.70
2018-11-05T07:40:44.937Z,40.80
2018-11-05T07:41:44.893Z,39.10
2018-11-05T07:42:44.880Z,38.90
2018-11-05T07:43:44.869Z,39.40
2018-11-05T07:44:44.869Z,37.90
2018-11-05T07:45:44.903Z,40.20
2018-11-05T07:46:44.835Z,40.70
2018-11-05T07:47:44.825Z,38.00
2018-11-05T07:48:44.816Z,41.10
2018-11-05T07:49:44.801Z,41.30
2018-11-05T07:50:44.905Z,38.00
2018-11-05T07:51:44.776Z,38.70
2018-11-05T07:52:44.768Z,41.20
2018-11-05T07:53:44.762Z,37.80
2018-11-05T07:54:44.746Z,42.00
2018-11-05T07:55:44.795Z,39.10
2018-11-05T07:56:44.746Z,39.70
2018-11-05T07:57:44.716Z,41.00
2018-11-05T07:58:44.700Z,37.20
2018-11-05T07:59:44.718Z,37.50
2018-11-05T08:00:44.709Z,42.40
2018-11-05T08:01:44.668Z,37.50
2018-11-05T08:02:44.707Z,39.60
2018-11-05T08:03:44.645Z,38.60
2018-11-05T08:04:44.633Z,39.60
2018-11-05T08:05:44.645Z,39.50
2018-11-05T08:06:44.615Z,37.70
2018-11-05T08:07:44.601Z,38.10
2018-11-05T08:08:44.611Z,42.70
2018-11-05T08:09:44.576Z,37.50
2018-11-05T08:10:44.566Z,40.70
2018-11-05T08:11:44.553Z,38.50
2018-11-05T08:12:44.578Z,37.30
2018-11-05T08:13:44.537Z,39.20
2018-11-05T08:14:44.524Z,39.20
2018-11-05T08:15:44.508Z,40.10
2018-11-05T08:16:44.533Z,38.70
2018-11-05T08:17:44.484Z,42.10
2018-11-05T08:18:44.491Z,41.40
2018-11-05T08:19:44.491Z,44.90
2018-11-05T08:20:44.453Z,40.20
2018-11-05T08:21:44.440Z,37.00
2018-11-05T08:22:44.438Z,37.80
2018-11-05T08:23:44.442Z,39.40
2018-11-05T08:24:44.410Z,38.00
2018-11-05T08:25:44.385Z,36.70
2018-11-05T08:26:44.400Z,37.80
2018-11-05T08:27:44.450Z,39.80
2018-11-05T08:28:44.367Z,35.20
2018-11-05T08:29:44.352Z,36.60
2018-11-05T08:30:44.354Z,36.10
2018-11-05T08:31:44.327Z,37.60
2018-11-05T08:32:44.344Z,36.50
2018-11-05T08:33:44.341Z,35.80
2018-11-05T08:34:44.298Z,35.70
2018-11-05T08:35:44.302Z,39.20
2018-11-05T08:36:44.285Z,37.60
2018-11-05T08:37:44.263Z,36.70
2018-11-05T08:38:44.281Z,37.40
2018-11-05T08:39:44.244Z,37.80
2018-11-05T08:40:44.226Z,32.80
2018-11-05T08:41:44.224Z,33.80
2018-11-05T08:42:44.206Z,33.90
2018-11-05T08:43:44.234Z,37.90
2018-11-05T08:44:44.180Z,35.40
2018-11-05T08:45:44.169Z,36.60
2018-11-05T08:46:44.188Z,37.90
2018-11-05T08:47:44.149Z,34.80
2018-11-05T08:48:44.170Z,33.20
2018-11-05T08:49:44.129Z,33.00
2018-11-05T08:50:44.260Z,32.30
2018-11-05T08:51:44.506Z,34.20
2018-11-05T08:52:44.092Z,34.90
2018-11-05T08:53:44.104Z,34.00
2018-11-05T08:54:44.075Z,34.40
2018-11-05T08:55:44.058Z,34.90
2018-11-05T08:56:44.050Z,32.10
2018-11-05T08:57:44.130Z,29.50
2018-11-05T08:58:44.034Z,33.70
2018-11-05T08:59:44.031Z,32.60
2018-11-05T09:00:44.000Z,31.40
2018-11-05T09:01:43.993Z,35.30
2018-11-05T09:02:44.010Z,31.80
2018-11-05T09:03:43.965Z,35.00
2018-11-05T09:04:44.075Z,34.60
2018-11-05T09:05:43.943Z,32.90
2018-11-05T09:06:43.938Z,33.40
2018-11-05T09:07:43.948Z,33.60
2018-11-05T09:08:43.911Z,35.10
2018-11-05T09:09:43.964Z,33.00
2018-11-05T09:10:44.256Z,32.80
2018-11-05T09:11:43.999Z,33.50
2018-11-05T09:12:43.864Z,35.50
2018-11-05T09:13:43.855Z,33.00
2018-11-05T09:14:43.844Z,32.10
2018-11-05T09:15:43.857Z,33.60
2018-11-05T09:16:43.826Z,31.50
2018-11-05T09:17:43.810Z,36.60
2018-11-05T09:18:43.795Z,29.60
2018-11-05T09:19:43.794Z,32.70
2018-11-05T09:20:43.836Z,32.80
2018-11-05T09:21:43.758Z,30.20
2018-11-05T09:22:43.747Z,35.10
2018-11-05T09:23:43.778Z,32.00
2018-11-05T09:24:43.725Z,32.60
2018-11-05T09:25:43.717Z,33.40
2018-11-05T09:26:43.706Z,33.50
2018-11-05T09:27:43.744Z,32.80
2018-11-05T09:28:43.709Z,31.60
2018-11-05T09:29:43.698Z,30.10
2018-11-05T09:30:43.717Z,30.30
2018-11-05T09:31:43.654Z,33.50
2018-11-05T09:32:43.640Z,33.90
2018-11-05T09:33:43.637Z,35.60
2018-11-05T09:34:43.613Z,33.30
2018-11-05T09:35:43.625Z,31.90
2018-11-05T09:36:43.763Z,33.40
2018-11-05T09:37:43.578Z,33.70
2018-11-05T09:38:43.572Z,35.20
2018-11-05T09:39:43.557Z,35.40
2018-11-05T09:40:43.544Z,30.90
2018-11-05T09:41:43.559Z,35.20
2018-11-05T09:42:43.551Z,34.40
2018-11-05T09:43:43.537Z,31.30
2018-11-05T09:44:43.504Z,31.30
2018-11-05T09:45:43.495Z,30.30
2018-11-05T09:46:43.503Z,31.50
2018-11-05T09:47:43.469Z,32.30
2018-11-05T09:48:43.488Z,34.00
2018-11-05T09:49:43.548Z,30.80
2018-11-05T09:50:43.560Z,31.50
2018-11-05T09:51:43.427Z,31.30
2018-11-05T09:52:43.411Z,31.90
2018-11-05T09:53:43.426Z,33.40
2018-11-05T09:54:43.416Z,34.80
2018-11-05T09:55:51.412Z,33.40
2018-11-05T09:56:43.349Z,34.80
2018-11-05T09:57:43.339Z,32.50
2018-11-05T09:58:43.328Z,30.30
2018-11-05T09:59:43.337Z,33.40
2018-11-05T10:00:43.309Z,32.30
2018-11-05T10:01:43.312Z,31.60
2018-11-05T10:02:43.328Z,31.30
2018-11-05T10:03:43.445Z,31.60
2018-11-05T10:04:43.607Z,30.80
2018-11-05T10:05:43.263Z,32.20
2018-11-05T10:06:43.250Z,33.60
2018-11-05T10:07:43.230Z,31.10
2018-11-05T10:08:43.257Z,34.30
2018-11-05T10:09:43.452Z,32.50
2018-11-05T10:10:43.239Z,32.30
2018-11-05T10:11:43.180Z,31.90
2018-11-05T10:12:43.180Z,33.70
2018-11-05T10:13:43.171Z,29.00
2018-11-05T10:14:43.147Z,32.30
2018-11-05T10:15:43.162Z,29.90
2018-11-05T10:16:43.123Z,31.70
2018-11-05T10:17:43.135Z,33.00
2018-11-05T10:18:43.123Z,32.80
2018-11-05T10:19:43.089Z,33.70
2018-11-05T10:20:43.110Z,33.60
2018-11-05T10:21:43.067Z,33.30
2018-11-05T10:22:43.062Z,33.00
2018-11-05T10:23:43.052Z,32.80
2018-11-05T10:24:43.166Z,29.80
2018-11-05T10:25:43.068Z,32.60
2018-11-05T10:26:43.045Z,29.50
2018-11-05T10:27:42.999Z,34.50
2018-11-05T10:28:42.989Z,32.90
2018-11-05T10:29:42.985Z,32.90
2018-11-05T10:30:42.964Z,33.10
2018-11-05T10:31:42.979Z,31.30
2018-11-05T10:32:42.951Z,33.00
2018-11-05T10:33:43.036Z,34.90
2018-11-05T10:34:42.945Z,30.30
2018-11-05T10:35:42.915Z,30.40
2018-11-05T10:36:42.897Z,31.90
2018-11-05T10:37:42.910Z,32.30
2018-11-05T10:38:42.873Z,37.30
2018-11-05T10:39:42.879Z,33.40
2018-11-05T10:40:42.859Z,34.10
2018-11-05T10:41:42.904Z,30.60
2018-11-05T10:42:42.830Z,32.40
2018-11-05T10:43:42.818Z,32.50
2018-11-05T10:44:42.807Z,31.30
2018-11-05T10:45:42.813Z,29.80
2018-11-05T10:46:42.825Z,34.10
2018-11-05T10:47:42.776Z,30.80
2018-11-05T10:48:42.769Z,33.40
2018-11-05T10:49:42.751Z,30.80
2018-11-05T10:50:42.765Z,33.60
2018-11-05T10:51:42.808Z,32.10
2018-11-05T10:52:42.724Z,29.30
2018-11-05T10:53:42.706Z,32.20
2018-11-05T10:54:42.693Z,33.50
2018-11-05T10:55:42.682Z,31.80
2018-11-05T10:56:42.698Z,31.10
2018-11-05T10:57:42.669Z,34.30
2018-11-05T10:58:42.670Z,32.60
2018-11-05T10:59:42.639Z,28.70
2018-11-05T11:00:42.700Z,31.10
2018-11-05T11:01:42.614Z,30.70
2018-11-05T11:02:42.606Z,30.80
2018-11-05T11:03:42.606Z,33.60
2018-11-05T11:04:42.605Z,30.40
2018-11-05T11:05:42.604Z,31.90
2018-11-05T11:06:42.558Z,28.80
2018-11-05T11:07:42.556Z,29.50
2018-11-05T11:08:42.545Z,31.10
2018-11-05T11:09:42.625Z,29.50
2018-11-05T11:10:42.621Z,30.00
2018-11-05T11:11:42.502Z,32.20
2018-11-05T11:12:42.488Z,33.60
2018-11-05T11:13:42.521Z,33.10
2018-11-05T11:14:42.469Z,32.00
2018-11-05T11:15:42.478Z,29.40
2018-11-05T11:16:42.445Z,30.30
2018-11-05T11:17:42.511Z,31.80
2018-11-05T11:18:42.445Z,30.70
2018-11-05T11:19:42.424Z,29.60
2018-11-05T11:20:42.412Z,32.10
2018-11-05T11:21:42.449Z,28.90
2018-11-05T11:22:42.383Z,29.60
2018-11-05T11:23:42.365Z,28.60
2018-11-05T11:24:42.923Z,29.30
2018-11-05T11:25:42.341Z,27.70
2018-11-05T11:26:42.331Z,30.70
2018-11-05T11:27:42.475Z,28.00
2018-11-05T11:28:42.370Z,28.40
2018-11-05T11:29:42.328Z,29.30
2018-11-05T11:30:42.308Z,29.40
2018-11-05T11:31:42.274Z,29.70
2018-11-05T11:32:42.281Z,29.60
2018-11-05T11:33:42.276Z,30.10
2018-11-05T11:34:42.240Z,32.20
2018-11-05T11:35:42.239Z,31.00
2018-11-05T11:36:42.379Z,29.10
2018-11-05T11:37:42.219Z,29.80
2018-11-05T11:38:42.442Z,29.40
2018-11-05T11:39:42.194Z,28.20
2018-11-05T11:40:42.206Z,29.50
2018-11-05T11:41:42.160Z,28.50
2018-11-05T11:42:42.173Z,29.10
2018-11-05T11:43:42.154Z,29.50
2018-11-05T11:44:42.163Z,26.90
2018-11-05T11:45:42.157Z,29.10
2018-11-05T11:46:42.104Z,28.60
2018-11-05T11:47:42.093Z,31.00
2018-11-05T11:48:42.084Z,29.10
2018-11-05T11:49:42.105Z,27.00
2018-11-05T11:50:42.064Z,29.30
2018-11-05T11:51:42.085Z,26.40
2018-11-05T11:52:42.065Z,29.70
2018-11-05T11:53:42.059Z,27.00
2018-11-05T11:54:42.068Z,28.40
2018-11-05T11:55:42.017Z,27.10
2018-11-05T11:56:41.990Z,29.00
2018-11-05T11:57:42.031Z,27.20
2018-11-05T11:58:41.992Z,26.30
2018-11-05T11:59:41.963Z,27.40
2018-11-05T12:00:41.952Z,27.60
2018-11-05T12:01:41.978Z,28.30
2018-11-05T12:02:41.960Z,27.70
2018-11-05T12:03:41.914Z,23.70
2018-11-05T12:04:41.904Z,25.50
2018-11-05T12:05:41.922Z,27.00
2018-11-05T12:06:41.901Z,26.40
2018-11-05T12:07:41.869Z,28.60
2018-11-05T12:08:41.855Z,25.20
2018-11-05T12:09:41.844Z,28.00
2018-11-05T12:10:41.873Z,26.70
2018-11-05T12:11:41.822Z,27.10
2018-11-05T12:12:41.821Z,27.30
2018-11-05T12:13:41.802Z,28.60
2018-11-05T12:14:42.004Z,27.30
2018-11-05T12:15:41.845Z,28.40
2018-11-05T12:16:41.772Z,24.90
2018-11-05T12:17:41.761Z,26.80
2018-11-05T12:18:49.814Z,27.40
2018-11-05T12:19:50.824Z,28.90
2018-11-05T12:20:41.718Z,27.00
2018-11-05T12:21:41.733Z,26.40
2018-11-05T12:22:41.882Z,23.40
2018-11-05T12:23:49.729Z,26.00
2018-11-05T12:24:49.763Z,27.40
2018-11-05T12:25:41.699Z,27.20
2018-11-05T12:26:41.696Z,26.90
2018-11-05T12:27:41.639Z,26.40
2018-11-05T12:28:41.665Z,26.40
2018-11-05T12:29:49.668Z,26.60
2018-11-05T12:30:41.605Z,25.50
2018-11-05T12:31:41.593Z,24.70
2018-11-05T12:32:41.583Z,27.70
2018-11-05T12:33:41.596Z,25.90
2018-11-05T12:34:41.563Z,27.80
2018-11-05T12:35:41.560Z,27.90
2018-11-05T12:36:41.581Z,24.80
2018-11-05T12:37:41.534Z,27.60
2018-11-05T12:38:41.613Z,25.80
2018-11-05T12:39:41.524Z,23.70
2018-11-05T12:40:41.493Z,25.50
2018-11-05T12:41:41.505Z,24.10
2018-11-05T12:42:41.472Z,25.90
2018-11-05T12:43:41.460Z,24.30
2018-11-05T12:44:41.457Z,24.40
2018-11-05T12:45:41.468Z,25.70
2018-11-05T12:46:41.438Z,22.70
2018-11-05T12:47:41.414Z,24.00
2018-11-05T12:48:41.403Z,31.80
2018-11-05T12:49:41.394Z,24.80
2018-11-05T12:50:41.424Z,23.90
2018-11-05T12:51:41.392Z,27.30
2018-11-05T12:52:41.372Z,27.50